Time;durP1;ratioP1;P1;durP2;ratioP2;P2;SDS_P1;SDS_P2;PMS_P1;PMS_P2;Temp;Humidity;BMP_temperature;BMP_pressure;BME280_temperature;BME280_humidity;BME280_pressure;Samples;Min_cycle;Max_cycle;Signal;HPM_P1;HPM_P2
2023/07/15 00:00:41;;;;;;;2.92;2.30;;;17.40;37.70;;;;;;5031613;28;20034;-58
2023/07/15 00:03:12;;;;;;;3.03;2.10;;;17.40;38.30;;;;;;5026343;28;20481;-57
2023/07/15 00:05:39;;;;;;;2.88;2.50;;;17.40;37.90;;;;;;5021290;28;20798;-58
2023/07/15 00:08:08;;;;;;;5.57;2.83;;;17.40;38.70;;;;;;5037129;28;20079;-59
2023/07/15 00:10:36;;;;;;;4.53;2.70;;;17.40;39.20;;;;;;5026960;28;20429;-58
2023/07/15 00:13:02;;;;;;;2.75;2.25;;;17.40;39.50;;;;;;5028092;28;20590;-58
2023/07/15 00:15:28;;;;;;;2.50;2.30;;;17.40;39.60;;;;;;5041146;28;20037;-58
2023/07/15 00:17:54;;;;;;;3.97;2.30;;;17.40;41.00;;;;;;5028652;28;20026;-58
2023/07/15 00:20:19;;;;;;;4.15;2.70;;;17.40;40.30;;;;;;5042281;28;20175;-58
2023/07/15 00:22:46;;;;;;;3.05;2.50;;;17.40;40.80;;;;;;5029781;28;20034;-57
2023/07/15 00:25:17;;;;;;;5.55;2.53;;;17.40;41.10;;;;;;5043454;28;20234;-60
2023/07/15 00:27:43;;;;;;;3.88;2.67;;;17.40;41.90;;;;;;5029608;28;20026;-58
2023/07/15 00:30:10;;;;;;;3.15;2.80;;;17.40;42.40;;;;;;5041540;28;20563;-59
2023/07/15 00:32:36;;;;;;;4.43;2.65;;;17.40;42.00;;;;;;5049330;28;20033;-57
2023/07/15 00:35:02;;;;;;;2.15;1.95;;;17.40;43.00;;;;;;5027964;28;20038;-58
2023/07/15 00:37:28;;;;;;;3.45;3.08;;;17.40;43.10;;;;;;5029600;28;20025;-58
2023/07/15 00:39:55;;;;;;;3.40;2.72;;;17.40;43.10;;;;;;5045459;28;20040;-57
2023/07/15 00:43:02;;;;;;;6.18;3.00;;;17.40;43.60;;;;;;5028000;28;20622;-57
2023/07/15 00:45:27;;;;;;;2.60;2.40;;;17.50;44.40;;;;;;5013731;28;20057;-57
2023/07/15 00:48:09;;;;;;;6.10;3.00;;;17.60;43.50;;;;;;5029398;28;20045;-58
2023/07/15 00:50:39;;;;;;;3.85;2.95;;;17.70;44.10;;;;;;5025580;28;20066;-57
2023/07/15 00:53:04;;;;;;;3.75;2.42;;;17.80;44.10;;;;;;5028284;28;20057;-57
2023/07/15 00:55:30;;;;;;;3.58;2.97;;;17.80;43.20;;;;;;5028325;28;20034;-57
2023/07/15 00:57:57;;;;;;;4.55;2.95;;;17.90;43.70;;;;;;5047998;28;20021;-57
2023/07/15 01:00:23;;;;;;;4.45;2.15;;;17.90;43.70;;;;;;5026434;28;20056;-57
2023/07/15 01:02:49;;;;;;;3.78;2.40;;;17.90;44.10;;;;;;5048333;28;20064;-57
2023/07/15 01:05:14;;;;;;;4.13;2.78;;;18.00;43.20;;;;;;5028881;28;20098;-56
2023/07/15 01:07:40;;;;;;;7.35;2.75;;;18.00;44.00;;;;;;5047659;28;20635;-58
2023/07/15 01:10:06;;;;;;;4.55;3.10;;;18.00;43.50;;;;;;5027854;28;20034;-58
2023/07/15 01:12:31;;;;;;;4.03;2.42;;;18.00;43.50;;;;;;5048171;28;20021;-57
2023/07/15 01:14:57;;;;;;;3.75;2.80;;;18.00;43.70;;;;;;5027841;28;20761;-57
2023/07/15 01:17:22;;;;;;;2.72;2.53;;;18.00;43.80;;;;;;5048395;28;20029;-57
2023/07/15 01:19:49;;;;;;;4.65;2.78;;;18.00;44.00;;;;;;5027719;28;20033;-56
2023/07/15 01:22:15;;;;;;;4.32;3.03;;;18.00;44.00;;;;;;5048267;28;20408;-58
2023/07/15 01:24:41;;;;;;;7.13;3.10;;;18.00;44.90;;;;;;5027426;28;20018;-59
2023/07/15 01:27:08;;;;;;;3.53;2.75;;;17.90;46.00;;;;;;5048080;28;20481;-57
2023/07/15 01:29:33;;;;;;;3.85;3.03;;;17.90;45.30;;;;;;5027138;28;20045;-58
2023/07/15 01:31:59;;;;;;;3.72;3.05;;;17.80;46.00;;;;;;5048107;28;20033;-55
2023/07/15 01:34:24;;;;;;;5.43;2.97;;;17.80;46.70;;;;;;5035953;28;20033;-58
2023/07/15 01:36:51;;;;;;;5.88;2.90;;;17.70;47.00;;;;;;5048603;28;20031;-57
2023/07/15 01:39:16;;;;;;;4.72;2.88;;;17.70;48.30;;;;;;5027177;28;20486;-58
2023/07/15 01:41:42;;;;;;;3.75;2.83;;;17.70;48.40;;;;;;5047793;28;20032;-58
2023/07/15 01:44:08;;;;;;;5.40;2.70;;;17.70;49.10;;;;;;5027140;28;20108;-57
2023/07/15 01:46:36;;;;;;;4.20;2.88;;;17.60;49.60;;;;;;5028822;28;20156;-58
2023/07/15 01:49:03;;;;;;;5.95;2.70;;;17.60;50.30;;;;;;5040546;28;20508;-58
2023/07/15 01:51:29;;;;;;;3.10;2.70;;;17.60;52.10;;;;;;5028661;28;20048;-58
2023/07/15 01:53:54;;;;;;;3.80;2.75;;;17.50;51.00;;;;;;5043305;28;20037;-56
2023/07/15 01:56:21;;;;;;;2.80;2.55;;;17.50;51.60;;;;;;5032526;28;20029;-57
2023/07/15 01:58:47;;;;;;;4.13;2.58;;;17.40;52.70;;;;;;5049772;28;20421;-58
2023/07/15 02:01:12;;;;;;;3.85;2.50;;;17.40;52.60;;;;;;5052263;28;20570;-58
2023/07/15 02:03:39;;;;;;;3.95;2.72;;;17.30;55.00;;;;;;5047950;28;20493;-57
2023/07/15 02:06:05;;;;;;;4.65;2.50;;;17.30;54.80;;;;;;5040336;28;20033;-61
2023/07/15 02:08:32;;;;;;;5.45;2.72;;;17.30;55.10;;;;;;5030873;28;20040;-62
2023/07/15 02:10:58;;;;;;;2.75;2.45;;;17.30;55.80;;;;;;5032652;28;20104;-62
2023/07/15 02:13:23;;;;;;;7.25;2.92;;;17.20;56.90;;;;;;5049131;28;20462;-60
2023/07/15 02:15:49;;;;;;;3.05;2.70;;;17.20;57.40;;;;;;5032204;28;20034;-56
2023/07/15 02:18:15;;;;;;;3.67;2.63;;;17.20;58.00;;;;;;5051280;28;20068;-54
2023/07/15 02:20:40;;;;;;;4.55;2.75;;;17.20;58.70;;;;;;5030769;28;20022;-57
2023/07/15 02:23:09;;;;;;;4.20;2.95;;;17.20;58.80;;;;;;5051365;28;20810;-56
2023/07/15 02:25:34;;;;;;;4.45;2.55;;;17.10;58.90;;;;;;5030230;28;20021;-56
2023/07/15 02:28:00;;;;;;;3.28;2.60;;;17.10;59.70;;;;;;5051116;28;20036;-56
2023/07/15 02:30:26;;;;;;;4.70;2.95;;;17.10;60.50;;;;;;5041180;28;20045;-56
2023/07/15 02:32:54;;;;;;;4.60;2.97;;;17.00;61.80;;;;;;5032517;28;20505;-58
2023/07/15 02:35:20;;;;;;;2.88;2.58;;;17.00;62.00;;;;;;5033223;28;20041;-55
2023/07/15 02:37:46;;;;;;;4.88;2.63;;;17.00;62.00;;;;;;5049819;28;20405;-56
2023/07/15 02:40:12;;;;;;;2.80;2.42;;;17.00;62.40;;;;;;5030147;28;20044;-56
2023/07/15 02:42:38;;;;;;;5.32;2.83;;;16.90;63.30;;;;;;5050900;28;20045;-57
2023/07/15 02:45:05;;;;;;;2.90;2.47;;;16.90;64.60;;;;;;5044403;28;20028;-57
2023/07/15 02:47:32;;;;;;;5.35;2.95;;;16.80;64.80;;;;;;5051521;28;20040;-57
2023/07/15 02:50:00;;;;;;;3.72;2.85;;;16.80;65.60;;;;;;5029117;28;20036;-57
2023/07/15 02:52:26;;;;;;;3.45;2.70;;;16.80;65.30;;;;;;5050969;28;20421;-56
2023/07/15 02:54:51;;;;;;;2.65;2.45;;;16.60;66.60;;;;;;5029923;28;20052;-56
2023/07/15 02:57:17;;;;;;;4.40;3.03;;;16.60;67.50;;;;;;5050537;28;20044;-56
2023/07/15 02:59:42;;;;;;;3.38;2.50;;;16.60;68.30;;;;;;5029921;28;20040;-58
2023/07/15 03:02:10;;;;;;;5.13;2.97;;;16.50;69.50;;;;;;5050456;28;20111;-57
2023/07/15 03:04:36;;;;;;;6.32;2.60;;;16.50;70.20;;;;;;5027660;28;20095;-57
2023/07/15 03:07:02;;;;;;;4.75;3.15;;;16.40;70.10;;;;;;5048100;28;20024;-56
2023/07/15 03:09:27;;;;;;;3.17;2.40;;;16.40;71.10;;;;;;5029847;28;20547;-57
2023/07/15 03:11:53;;;;;;;3.55;2.80;;;16.40;71.40;;;;;;5050204;28;20113;-57
2023/07/15 03:14:19;;;;;;;5.32;2.80;;;16.40;75.40;;;;;;5037611;28;20037;-55
2023/07/15 03:16:44;;;;;;;3.47;3.00;;;16.40;74.00;;;;;;5050858;28;20025;-56
2023/07/15 03:19:10;;;;;;;4.20;3.45;;;16.40;73.80;;;;;;5029477;28;20485;-56
2023/07/15 03:21:38;;;;;;;4.97;3.20;;;16.40;74.60;;;;;;5031086;28;20030;-55
2023/07/15 03:24:04;;;;;;;6.95;3.30;;;16.50;74.60;;;;;;5042649;28;20025;-56
2023/07/15 03:26:30;;;;;;;3.80;2.65;;;16.50;75.50;;;;;;5030874;28;20044;-57
2023/07/15 03:28:55;;;;;;;7.03;3.05;;;16.50;74.10;;;;;;5043460;28;20389;-57
2023/07/15 03:31:21;;;;;;;5.57;3.17;;;16.50;75.30;;;;;;5030714;28;20057;-57
2023/07/15 03:33:46;;;;;;;4.43;3.00;;;16.60;75.90;;;;;;5044455;28;20033;-56
2023/07/15 03:36:12;;;;;;;6.68;2.97;;;16.60;75.40;;;;;;5030558;28;20068;-57
2023/07/15 03:38:37;;;;;;;3.47;2.30;;;16.60;74.70;;;;;;5045643;28;20029;-57
2023/07/15 03:41:02;;;;;;;3.50;2.60;;;16.70;74.40;;;;;;5030612;28;20045;-55
2023/07/15 03:43:28;;;;;;;5.47;3.55;;;16.70;75.80;;;;;;5046726;28;20093;-57
2023/07/15 03:45:57;;;;;;;3.17;2.88;;;16.80;76.10;;;;;;5030631;28;20052;-57
2023/07/15 03:48:23;;;;;;;3.50;2.60;;;16.80;75.60;;;;;;5047557;28;20079;-56
2023/07/15 03:50:48;;;;;;;4.60;2.83;;;16.90;75.10;;;;;;5030478;28;20029;-56
2023/07/15 03:53:14;;;;;;;4.55;2.85;;;17.20;74.60;;;;;;5049522;28;20067;-55
2023/07/15 03:55:40;;;;;;;3.63;2.75;;;17.70;72.60;;;;;;5028893;28;20042;-56
2023/07/15 03:58:05;;;;;;;3.50;2.50;;;18.30;70.40;;;;;;5049551;28;20033;-57
2023/07/15 04:00:31;;;;;;;5.53;3.20;;;18.90;68.10;;;;;;5029106;28;20036;-56
2023/07/15 04:02:56;;;;;;;5.30;3.08;;;19.50;66.00;;;;;;5049356;28;20452;-57
2023/07/15 04:05:22;;;;;;;6.47;2.90;;;19.90;62.20;;;;;;5035292;28;20182;-58
2023/07/15 04:07:47;;;;;;;4.90;2.75;;;20.40;61.40;;;;;;5030640;28;20167;-55
2023/07/15 04:10:13;;;;;;;3.45;2.88;;;20.90;59.50;;;;;;5031936;28;20061;-56
2023/07/15 04:12:39;;;;;;;3.92;3.30;;;21.10;57.00;;;;;;5049000;28;20701;-58
2023/07/15 04:15:05;;;;;;;3.20;2.90;;;21.40;57.00;;;;;;5028476;28;20033;-56
2023/07/15 04:17:30;;;;;;;5.05;3.05;;;21.70;55.70;;;;;;5048696;28;20024;-57
2023/07/15 04:19:56;;;;;;;4.75;2.88;;;21.90;54.60;;;;;;5028476;28;20041;-57
2023/07/15 04:22:23;;;;;;;6.03;3.03;;;22.50;53.60;;;;;;5048912;28;20041;-55
2023/07/15 04:24:48;;;;;;;5.10;2.55;;;22.90;51.60;;;;;;5028196;28;20494;-55
2023/07/15 04:27:14;;;;;;;3.95;2.85;;;23.30;49.20;;;;;;5025644;28;20043;-55
2023/07/15 04:29:39;;;;;;;4.45;2.45;;;23.90;48.60;;;;;;5031875;28;20106;-55
2023/07/15 04:32:05;;;;;;;8.05;3.33;;;24.40;47.40;;;;;;5030770;28;20029;-56
2023/07/15 04:34:30;;;;;;;3.88;2.75;;;24.60;43.30;;;;;;5046435;28;20609;-56
2023/07/15 04:36:56;;;;;;;4.32;2.85;;;24.70;41.50;;;;;;5041649;28;20059;-57
2023/07/15 04:39:21;;;;;;;5.22;3.13;;;25.20;41.90;;;;;;5048043;28;20120;-54
2023/07/15 04:41:47;;;;;;;4.50;2.60;;;25.70;39.80;;;;;;5027074;28;20037;-56
2023/07/15 04:44:12;;;;;;;5.38;3.03;;;26.20;35.00;;;;;;5028683;28;20048;-57
2023/07/15 04:46:38;;;;;;;5.18;2.80;;;26.30;35.40;;;;;;5047652;28;20033;-55
2023/07/15 04:49:04;;;;;;;5.25;3.03;;;26.60;36.20;;;;;;5027107;28;20493;-55
2023/07/15 04:51:29;;;;;;;4.85;2.25;;;26.80;35.20;;;;;;5047860;28;20115;-56
2023/07/15 04:53:56;;;;;;;4.80;2.75;;;27.10;32.60;;;;;;5027037;28;20045;-56
2023/07/15 04:56:22;;;;;;;5.28;3.20;;;27.30;32.90;;;;;;5047257;28;20044;-56
2023/07/15 04:58:48;;;;;;;4.80;2.72;;;27.70;29.70;;;;;;5040227;28;20032;-57
2023/07/15 05:01:13;;;;;;;3.55;3.20;;;28.00;29.20;;;;;;5047937;28;20052;-55
2023/07/15 05:03:38;;;;;;;4.72;3.25;;;27.80;28.20;;;;;;5026987;28;20029;-57
2023/07/15 05:06:04;;;;;;;4.35;2.70;;;27.90;26.30;;;;;;5041345;28;20555;-54
2023/07/15 05:08:29;;;;;;;4.25;2.78;;;27.90;28.20;;;;;;5026598;28;20029;-52
2023/07/15 05:10:55;;;;;;;3.50;2.85;;;28.10;28.20;;;;;;5047444;28;20021;-55
2023/07/15 05:13:21;;;;;;;7.07;2.63;;;28.50;26.90;;;;;;5026828;28;20551;-54
2023/07/15 05:15:46;;;;;;;3.55;2.10;;;29.00;26.80;;;;;;5046972;28;20055;-54
2023/07/15 05:18:12;;;;;;;2.80;2.25;;;29.40;26.20;;;;;;5026854;28;20029;-57
2023/07/15 05:20:38;;;;;;;4.93;2.33;;;29.90;25.30;;;;;;5047397;28;20029;-56
2023/07/15 05:23:04;;;;;;;3.90;2.60;;;30.30;24.40;;;;;;5026596;28;20030;-55
2023/07/15 05:25:31;;;;;;;8.25;2.70;;;30.60;23.40;;;;;;5027975;28;20029;-56
2023/07/15 05:27:57;;;;;;;3.33;2.47;;;30.50;22.50;;;;;;5038626;28;20029;-56
2023/07/15 05:30:23;;;;;;;6.45;3.03;;;30.80;19.70;;;;;;5026552;28;20519;-59
2023/07/15 05:32:49;;;;;;;5.70;2.40;;;30.40;20.80;;;;;;5044152;28;20109;-57
2023/07/15 05:35:14;;;;;;;2.78;2.40;;;30.70;20.80;;;;;;5030603;28;20129;-57
2023/07/15 05:37:40;;;;;;;3.90;2.35;;;31.20;20.30;;;;;;5045411;28;20028;-55
2023/07/15 05:40:09;;;;;;;3.92;2.58;;;31.60;19.50;;;;;;5019035;28;20076;-53
2023/07/15 05:42:44;;;;;;;5.45;2.78;;;31.60;17.30;;;;;;5038199;28;20060;-57
2023/07/15 05:45:11;;;;;;;3.30;2.70;;;31.90;16.10;;;;;;5025697;28;20534;-57
2023/07/15 05:47:40;;;;;;;3.67;2.47;;;31.50;17.50;;;;;;5045044;28;20049;-56
2023/07/15 05:50:07;;;;;;;2.95;2.53;;;31.90;17.30;;;;;;5028356;28;20565;-57
2023/07/15 05:52:33;;;;;;;2.40;2.13;;;32.10;15.90;;;;;;5051298;28;20025;-57
2023/07/15 05:54:58;;;;;;;5.10;2.60;;;32.80;16.30;;;;;;5030237;28;20545;-57
2023/07/15 05:57:23;;;;;;;2.55;2.33;;;33.20;15.20;;;;;;5050536;28;20033;-56
2023/07/15 05:59:49;;;;;;;5.57;1.95;;;33.50;14.90;;;;;;5030087;28;20393;-59
2023/07/15 06:02:15;;;;;;;5.68;2.25;;;34.30;14.20;;;;;;5034997;28;20057;-58
2023/07/15 06:04:40;;;;;;;2.88;1.98;;;34.90;13.70;;;;;;5034067;28;20072;-58
2023/07/15 06:07:06;;;;;;;2.70;2.10;;;35.30;12.60;;;;;;5043387;28;20112;-57
2023/07/15 06:09:31;;;;;;;2.80;2.17;;;36.00;11.80;;;;;;5051166;28;20113;-57
2023/07/15 06:11:57;;;;;;;3.00;2.30;;;36.20;10.90;;;;;;5029867;28;20541;-58
2023/07/15 06:14:22;;;;;;;3.45;2.10;;;35.80;9.80;;;;;;5031306;28;20030;-62
2023/07/15 06:16:48;;;;;;;2.42;2.22;;;35.70;10.10;;;;;;5048583;28;20508;-62
2023/07/15 06:19:13;;;;;;;3.00;2.50;;;35.10;9.70;;;;;;5030088;28;20496;-62
2023/07/15 06:21:41;;;;;;;4.28;2.40;;;35.20;9.90;;;;;;5032463;28;20428;-63
2023/07/15 06:24:06;;;;;;;2.92;2.35;;;35.40;9.60;;;;;;5047991;28;20131;-62
2023/07/15 06:26:32;;;;;;;2.40;2.03;;;35.80;7.70;;;;;;5032106;28;20508;-63
2023/07/15 06:28:59;;;;;;;2.80;2.30;;;36.10;8.80;;;;;;5049433;28;20021;-63
2023/07/15 06:31:26;;;;;;;4.43;2.22;;;36.60;7.40;;;;;;5031456;28;20045;-63
2023/07/15 06:33:52;;;;;;;2.20;1.92;;;36.80;7.60;;;;;;5043961;28;20065;-63
2023/07/15 06:36:18;;;;;;;2.25;1.92;;;37.80;6.90;;;;;;5032854;28;20123;-63
2023/07/15 06:38:43;;;;;;;2.83;2.40;;;38.80;6.10;;;;;;5042433;28;20061;-63
2023/07/15 06:41:08;;;;;;;2.47;2.15;;;38.30;5.70;;;;;;5028748;28;20041;-64
2023/07/15 06:43:34;;;;;;;2.40;1.90;;;38.80;5.20;;;;;;5040845;28;20037;-64
2023/07/15 06:46:00;;;;;;;5.30;2.33;;;39.40;4.60;;;;;;5012951;28;20053;-63
2023/07/15 06:48:25;;;;;;;2.40;2.20;;;39.10;4.30;;;;;;5046786;28;20098;-63
2023/07/15 06:50:51;;;;;;;3.35;2.28;;;39.10;3.90;;;;;;5044826;28;20044;-63
2023/07/15 06:53:16;;;;;;;3.90;2.30;;;38.70;3.30;;;;;;5029936;28;20390;-63
2023/07/15 06:55:42;;;;;;;2.60;2.20;;;38.90;3.90;;;;;;5030914;28;20080;-64
2023/07/15 06:58:07;;;;;;;2.80;1.98;;;39.30;3.10;;;;;;5048059;28;20393;-63
2023/07/15 07:00:33;;;;;;;5.93;2.17;;;40.00;3.40;;;;;;5024794;28;20521;-61
2023/07/15 07:02:59;;;;;;;3.88;2.05;;;40.50;1.90;;;;;;5049286;28;20029;-64
2023/07/15 07:05:26;;;;;;;2.15;1.90;;;41.10;1.90;;;;;;5038866;28;20492;-62
2023/07/15 07:07:51;;;;;;;3.55;1.83;;;41.30;1.40;;;;;;5028805;28;20051;-63
2023/07/15 07:10:17;;;;;;;1.95;1.83;;;41.20;1.40;;;;;;5049989;28;20079;-63
2023/07/15 07:12:43;;;;;;;4.20;2.30;;;41.90;1.00;;;;;;5046463;28;20037;-63
2023/07/15 07:15:08;;;;;;;3.83;2.00;;;42.20;1.00;;;;;;5049688;28;20064;-62
2023/07/15 07:17:34;;;;;;;2.45;2.13;;;42.70;1.00;;;;;;5029595;28;20087;-63
2023/07/15 07:19:59;;;;;;;4.88;1.98;;;43.00;1.00;;;;;;5050268;28;20025;-63
2023/07/15 07:22:25;;;;;;;2.88;1.77;;;43.00;1.00;;;;;;5029757;28;20494;-63
2023/07/15 07:24:52;;;;;;;4.38;1.73;;;43.10;1.00;;;;;;5050177;28;20075;-63
2023/07/15 07:27:18;;;;;;;4.03;1.92;;;42.70;1.00;;;;;;5029245;28;20025;-63
2023/07/15 07:29:45;;;;;;;3.75;2.25;;;41.90;1.00;;;;;;5044865;28;20409;-63
2023/07/15 07:32:10;;;;;;;2.92;2.03;;;42.40;1.00;;;;;;5042314;28;20025;-63
2023/07/15 07:34:36;;;;;;;3.83;1.88;;;42.30;1.00;;;;;;5049276;28;20029;-62
2023/07/15 07:37:01;;;;;;;2.28;2.00;;;42.90;1.00;;;;;;5028250;28;20034;-62
2023/07/15 07:39:27;;;;;;;3.92;2.00;;;42.30;1.00;;;;;;5049754;28;20041;-64
2023/07/15 07:41:54;;;;;;;2.53;1.80;;;42.00;1.00;;;;;;5029230;28;20040;-64
2023/07/15 07:44:21;;;;;;;2.63;2.00;;;42.40;1.00;;;;;;5049991;28;20036;-66
2023/07/15 07:46:46;;;;;;;2.33;1.92;;;41.90;1.00;;;;;;5029011;28;20079;-63
2023/07/15 07:49:12;;;;;;;4.10;1.95;;;42.40;1.00;;;;;;5049607;28;20037;-62
2023/07/15 07:51:37;;;;;;;2.10;1.92;;;42.40;1.00;;;;;;5028195;28;20037;-63
2023/07/15 07:54:03;;;;;;;3.88;1.98;;;42.50;1.00;;;;;;5049410;28;20090;-63
2023/07/15 07:56:28;;;;;;;3.70;1.90;;;42.50;1.00;;;;;;5028918;28;20463;-64
2023/07/15 07:58:57;;;;;;;2.97;1.73;;;42.40;1.00;;;;;;5049430;28;20099;-63
2023/07/15 08:01:26;;;;;;;3.20;2.13;;;42.10;1.00;;;;;;5028531;28;20025;-63
2023/07/15 08:03:53;;;;;;;2.75;1.80;;;42.50;1.00;;;;;;5030253;28;20430;-62
2023/07/15 08:06:21;;;;;;;4.05;2.00;;;42.70;1.00;;;;;;5038191;28;20444;-65
2023/07/15 08:08:47;;;;;;;2.53;1.92;;;43.10;1.00;;;;;;5030180;28;20104;-65
2023/07/15 08:11:12;;;;;;;13.70;2.80;;;43.40;1.00;;;;;;5047177;28;20104;-62
2023/07/15 08:13:38;;;;;;;2.25;1.70;;;43.70;1.00;;;;;;5050225;28;20102;-62
2023/07/15 08:16:03;;;;;;;2.38;1.95;;;43.00;1.00;;;;;;5032653;28;20033;-60
2023/07/15 08:18:29;;;;;;;2.95;1.90;;;43.20;1.00;;;;;;5049813;28;20021;-60
2023/07/15 08:20:54;;;;;;;3.42;2.17;;;43.20;1.00;;;;;;5031589;28;20048;-59
2023/07/15 08:23:20;;;;;;;3.78;1.90;;;41.40;1.00;;;;;;5049724;28;20052;-59
2023/07/15 08:25:46;;;;;;;2.70;1.90;;;40.20;1.00;;;;;;5028290;28;20116;-66
2023/07/15 08:28:11;;;;;;;2.00;1.88;;;40.70;1.00;;;;;;5046740;28;20044;-67
2023/07/15 08:30:37;;;;;;;2.30;1.75;;;41.00;1.00;;;;;;5046679;28;20535;-65
2023/07/15 08:33:04;;;;;;;2.75;1.60;;;41.30;1.00;;;;;;5028514;28;20539;-65
2023/07/15 08:35:30;;;;;;;2.65;1.70;;;41.40;1.00;;;;;;5048876;28;20124;-67
2023/07/15 08:37:55;;;;;;;2.25;1.60;;;41.80;1.00;;;;;;5027863;28;20041;-67
2023/07/15 08:40:24;;;;;;;3.92;1.85;;;42.00;1.00;;;;;;5048505;28;20178;-67
2023/07/15 08:42:49;;;;;;;3.15;1.80;;;41.90;1.00;;;;;;5027694;28;20064;-66
2023/07/15 08:45:16;;;;;;;1.90;1.70;;;41.80;1.00;;;;;;5048737;28;20148;-65
2023/07/15 08:47:44;;;;;;;1.80;1.67;;;41.50;1.00;;;;;;5028079;28;20528;-66
2023/07/15 08:50:11;;;;;;;3.70;1.75;;;40.70;1.00;;;;;;5048865;28;20043;-67
2023/07/15 08:52:38;;;;;;;1.90;1.60;;;40.50;1.00;;;;;;5044935;28;20035;-67
2023/07/15 08:55:04;;;;;;;2.28;1.65;;;40.20;1.00;;;;;;5048724;28;20032;-67
2023/07/15 08:57:31;;;;;;;2.13;1.58;;;39.90;1.00;;;;;;5027778;28;20144;-67
2023/07/15 08:59:58;;;;;;;3.28;1.60;;;39.80;1.00;;;;;;5048774;28;20113;-67
2023/07/15 09:02:24;;;;;;;2.38;1.80;;;39.60;1.00;;;;;;5027505;28;20107;-67
2023/07/15 09:04:49;;;;;;;5.85;1.40;;;39.40;1.00;;;;;;5037220;28;20458;-66
2023/07/15 09:07:15;;;;;;;1.60;1.50;;;38.70;1.00;;;;;;5027502;28;20112;-67
2023/07/15 09:09:42;;;;;;;1.80;1.60;;;38.60;1.00;;;;;;5048639;28;20035;-67
2023/07/15 09:12:09;;;;;;;1.95;1.35;;;38.30;1.00;;;;;;5027305;28;20404;-68
2023/07/15 09:14:53;;;;;;;1.60;1.45;;;38.10;1.00;;;;;;5047073;28;20037;-67
2023/07/15 09:17:20;;;;;;;2.23;2.00;;;37.90;1.00;;;;;;5019811;28;20037;-67
2023/07/15 09:19:46;;;;;;;3.15;1.60;;;37.60;1.00;;;;;;5047382;28;20075;-67
2023/07/15 09:22:12;;;;;;;2.47;1.70;;;37.80;1.00;;;;;;5027626;28;20481;-67
2023/07/15 09:24:38;;;;;;;2.25;1.73;;;38.00;1.00;;;;;;5048226;28;20029;-67
2023/07/15 09:27:04;;;;;;;3.40;2.05;;;37.60;1.00;;;;;;5027368;28;20079;-67
2023/07/15 09:29:30;;;;;;;2.83;1.70;;;37.40;1.00;;;;;;5037850;28;20069;-67
2023/07/15 09:31:56;;;;;;;2.67;1.70;;;37.50;1.00;;;;;;5025918;28;20038;-67
2023/07/15 09:34:23;;;;;;;2.83;1.60;;;37.50;1.00;;;;;;5046263;28;20041;-68
2023/07/15 09:36:49;;;;;;;4.18;2.13;;;37.10;1.00;;;;;;5024313;28;20517;-68
2023/07/15 09:39:19;;;;;;;1.75;1.40;;;36.80;1.00;;;;;;5028881;28;20033;-67
2023/07/15 09:42:02;;;;;;;2.65;1.67;;;36.80;1.00;;;;;;5022030;28;20113;-67
2023/07/15 09:44:38;;;;;;;1.67;1.45;;;36.80;1.00;;;;;;5028745;28;20120;-66
2023/07/15 09:47:05;;;;;;;2.10;1.42;;;36.90;1.00;;;;;;5016650;28;20037;-67
2023/07/15 09:49:32;;;;;;;3.03;1.60;;;36.80;1.00;;;;;;5048077;28;20449;-67
2023/07/15 09:51:58;;;;;;;2.55;1.70;;;36.70;1.00;;;;;;5034680;28;20037;-67
2023/07/15 09:54:26;;;;;;;1.70;1.60;;;36.60;1.00;;;;;;5028753;28;20032;-66
2023/07/15 09:56:58;;;;;;;1.55;1.40;;;36.50;1.00;;;;;;5046185;28;20044;-65
2023/07/15 09:59:28;;;;;;;2.25;1.67;;;36.40;1.00;;;;;;5008707;28;20033;-66
2023/07/15 10:01:58;;;;;;;1.98;1.50;;;36.30;1.00;;;;;;5035857;28;20025;-65
2023/07/15 10:04:35;;;;;;;3.40;1.55;;;36.20;1.00;;;;;;5029798;28;20022;-64
2023/07/15 10:07:03;;;;;;;4.72;1.88;;;36.00;1.00;;;;;;5034652;28;20032;-65
2023/07/15 10:09:31;;;;;;;2.78;1.30;;;35.60;1.00;;;;;;5026218;28;20057;-65
2023/07/15 10:11:57;;;;;;;3.28;1.63;;;35.50;1.50;;;;;;5041688;28;20105;-65
2023/07/15 10:14:23;;;;;;;2.20;1.70;;;35.40;1.00;;;;;;5027173;28;20021;-66
2023/07/15 10:17:09;;;;;;;4.00;2.03;;;35.40;1.10;;;;;;5040245;28;20041;-66
2023/07/15 10:19:52;;;;;;;2.15;1.77;;;35.30;2.50;;;;;;5029812;28;20030;-66
2023/07/15 10:22:20;;;;;;;1.95;1.60;;;35.20;1.80;;;;;;5015951;28;20036;-65
2023/07/15 10:24:57;;;;;;;2.00;1.70;;;35.30;1.80;;;;;;5049593;28;20045;-65
2023/07/15 10:27:27;;;;;;;2.72;1.80;;;35.40;2.20;;;;;;5018154;28;20075;-65
2023/07/15 10:30:19;;;;;;;6.55;1.70;;;35.30;2.10;;;;;;5035512;28;20037;-67
2023/07/15 10:33:05;;;;;;;4.50;2.10;;;35.10;2.20;;;;;;5025572;28;20021;-66
2023/07/15 10:35:33;;;;;;;3.20;1.70;;;34.70;2.20;;;;;;5041407;28;20045;-66
2023/07/15 10:38:19;;;;;;;2.25;1.75;;;34.50;2.60;;;;;;5019317;28;20061;-66
2023/07/15 10:40:52;;;;;;;5.32;1.88;;;34.30;3.50;;;;;;5009581;28;20700;-66
2023/07/15 10:43:22;;;;;;;2.97;2.03;;;34.20;3.10;;;;;;5034772;28;20549;-65
2023/07/15 10:45:54;;;;;;;2.78;1.70;;;34.00;3.20;;;;;;5031007;28;20035;-65
2023/07/15 10:48:21;;;;;;;4.13;1.80;;;34.00;4.50;;;;;;5031715;28;20083;-66
2023/07/15 10:50:58;;;;;;;2.33;2.05;;;34.00;3.60;;;;;;5031850;28;20684;-66
2023/07/15 10:53:26;;;;;;;2.78;1.75;;;34.10;3.20;;;;;;5012037;28;20075;-66
2023/07/15 10:55:54;;;;;;;2.53;1.88;;;34.10;3.00;;;;;;5030735;28;20038;-66
2023/07/15 10:58:20;;;;;;;4.05;2.05;;;33.90;3.40;;;;;;5050946;28;20029;-66
2023/07/15 11:00:46;;;;;;;2.10;1.90;;;33.60;3.90;;;;;;5048124;28;20479;-66
2023/07/15 11:03:11;;;;;;;4.32;2.10;;;33.60;4.10;;;;;;5051598;28;20445;-65
2023/07/15 11:05:38;;;;;;;3.88;1.73;;;33.50;3.70;;;;;;5032250;28;20088;-65
2023/07/15 11:08:07;;;;;;;2.75;1.70;;;33.50;3.90;;;;;;5023431;28;20041;-66
2023/07/15 11:10:33;;;;;;;4.07;1.60;;;33.60;3.80;;;;;;5023047;28;20112;-67
2023/07/15 11:13:12;;;;;;;5.28;2.10;;;33.60;3.60;;;;;;5019571;28;20181;-66
2023/07/15 11:15:38;;;;;;;3.08;1.70;;;33.60;3.90;;;;;;5015651;28;20033;-67
2023/07/15 11:18:03;;;;;;;2.50;2.00;;;33.60;3.80;;;;;;5022041;28;20037;-66
2023/07/15 11:20:29;;;;;;;4.88;2.00;;;33.60;4.20;;;;;;5018723;28;20087;-66
2023/07/15 11:22:55;;;;;;;3.50;2.33;;;33.60;4.10;;;;;;5026644;28;20030;-66
2023/07/15 11:25:20;;;;;;;1.92;1.70;;;33.50;3.90;;;;;;5022182;28;20053;-66
2023/07/15 11:27:46;;;;;;;2.42;1.83;;;33.40;4.00;;;;;;5020651;28;20041;-67
2023/07/15 11:30:12;;;;;;;2.22;1.80;;;33.40;4.10;;;;;;5020599;28;20148;-66
2023/07/15 11:32:37;;;;;;;3.17;1.60;;;33.40;4.00;;;;;;5026392;28;20037;-66
2023/07/15 11:35:12;;;;;;;2.20;2.00;;;33.40;4.10;;;;;;5020245;28;20502;-66
2023/07/15 11:37:42;;;;;;;;;;;33.40;4.00;;;;;;5031357;28;20068;-66
2023/07/15 11:40:14;;;;;;;2.03;1.55;;;33.40;3.80;;;;;;5032367;28;19920;-65
2023/07/15 11:42:40;;;;;;;3.92;2.15;;;33.40;4.20;;;;;;5009334;28;20398;-66
2023/07/15 11:45:06;;;;;;;2.53;1.85;;;33.50;3.90;;;;;;5032087;28;20030;-66
2023/07/15 11:47:35;;;;;;;2.13;1.80;;;33.60;4.60;;;;;;5035122;28;20200;-66
2023/07/15 11:50:00;;;;;;;2.45;1.80;;;33.60;4.10;;;;;;5033927;28;20017;-66
2023/07/15 11:52:26;;;;;;;2.53;1.70;;;33.60;4.30;;;;;;5039720;28;20029;-66
2023/07/15 11:54:53;;;;;;;2.97;1.90;;;33.60;4.30;;;;;;5024027;28;20544;-66
2023/07/15 11:57:28;;;;;;;3.08;2.05;;;33.50;4.00;;;;;;5035024;28;20187;-67
2023/07/15 11:59:54;;;;;;;2.55;1.63;;;33.40;4.40;;;;;;5033137;28;20075;-66
2023/07/15 12:02:20;;;;;;;2.10;1.90;;;33.40;4.10;;;;;;5046042;28;20036;-66
2023/07/15 12:04:47;;;;;;;2.30;1.77;;;33.40;3.90;;;;;;5034726;28;20079;-66
2023/07/15 12:07:13;;;;;;;4.10;1.90;;;33.40;3.80;;;;;;5033889;28;20108;-67
2023/07/15 12:09:39;;;;;;;2.13;1.90;;;33.40;2.80;;;;;;5040719;28;20160;-66
2023/07/15 12:12:05;;;;;;;2.83;1.65;;;33.40;3.10;;;;;;5046112;28;20163;-66
2023/07/15 12:14:31;;;;;;;2.08;1.40;;;33.30;3.20;;;;;;5026672;28;20516;-66
2023/07/15 12:16:59;;;;;;;2.50;1.90;;;33.40;3.30;;;;;;5047493;28;20556;-65
2023/07/15 12:19:25;;;;;;;4.15;2.08;;;33.50;3.10;;;;;;5026016;28;20117;-66
2023/07/15 12:21:51;;;;;;;2.30;1.95;;;33.40;3.00;;;;;;5047294;28;20041;-66
2023/07/15 12:24:17;;;;;;;3.30;2.05;;;33.40;3.10;;;;;;5026437;28;20496;-66
2023/07/15 12:26:43;;;;;;;3.65;2.00;;;33.30;3.50;;;;;;5027976;28;20120;-66
2023/07/15 12:29:09;;;;;;;1.63;1.52;;;33.30;3.40;;;;;;5027081;28;20037;-65
2023/07/15 12:31:34;;;;;;;1.70;1.60;;;33.20;3.20;;;;;;5027819;28;20029;-67
2023/07/15 12:34:00;;;;;;;2.05;1.60;;;33.30;3.40;;;;;;5043788;28;20036;-67
2023/07/15 12:36:25;;;;;;;1.50;1.40;;;33.40;3.50;;;;;;5048117;28;20036;-66
2023/07/15 12:38:51;;;;;;;2.25;1.50;;;33.40;3.40;;;;;;5031386;28;20028;-67
2023/07/15 12:41:17;;;;;;;2.92;1.55;;;33.40;3.60;;;;;;5025449;28;20067;-66
2023/07/15 12:43:43;;;;;;;1.60;1.50;;;33.50;3.50;;;;;;5022017;28;20032;-65
2023/07/15 12:46:09;;;;;;;1.52;1.35;;;33.60;3.50;;;;;;5018904;28;20293;-66
2023/07/15 12:48:36;;;;;;;2.50;1.83;;;33.60;3.30;;;;;;5024493;28;20064;-66
2023/07/15 12:51:01;;;;;;;1.60;1.50;;;33.50;3.50;;;;;;5023605;28;20021;-68